sensor_id;sensor_type;location;lat;lon;timestamp;temperature;humidity
66156;DHT22;52957;50.848;20.656;2022-07-19T00:00:18;23;91
66156;DHT22;52957;50.848;20.656;2022-07-19T00:07:20;24;90
66156;DHT22;52957;50.848;20.656;2022-07-19T00:14:05;24;90
66156;DHT22;52957;50.848;20.656;2022-07-19T00:21:03;24;90
66156;DHT22;52957;50.848;20.656;2022-07-19T00:28:18;24;90
66156;DHT22;52957;50.848;20.656;2022-07-19T00:35:06;24;92
66156;DHT22;52957;50.848;20.656;2022-07-19T00:42:03;24;92
66156;DHT22;52957;50.848;20.656;2022-07-19T00:49:21;24;92
66156;DHT22;52957;50.848;20.656;2022-07-19T00:56:09;24;92
66156;DHT22;52957;50.848;20.656;2022-07-19T01:00:07;24;92
66156;DHT22;52957;50.848;20.656;2022-07-19T01:07:17;24;88
66156;DHT22;52957;50.848;20.656;2022-07-19T01:14:03;24;88
66156;DHT22;52957;50.848;20.656;2022-07-19T01:21:22;24;88
66156;DHT22;52957;50.848;20.656;2022-07-19T01:28:04;24;88
66156;DHT22;52957;50.848;20.656;2022-07-19T01:35:07;24;87
66156;DHT22;52957;50.848;20.656;2022-07-19T01:42:03;24;87
66156;DHT22;52957;50.848;20.656;2022-07-19T01:49:06;24;87
66156;DHT22;52957;50.848;20.656;2022-07-19T01:56:18;24;87
66156;DHT22;52957;50.848;20.656;2022-07-19T02:00:12;24;87
66156;DHT22;52957;50.848;20.656;2022-07-19T02:07:17;23;90
66156;DHT22;52957;50.848;20.656;2022-07-19T02:14:19;23;90
66156;DHT22;52957;50.848;20.656;2022-07-19T02:21:03;23;90
66156;DHT22;52957;50.848;20.656;2022-07-19T02:28:05;23;90
66156;DHT22;52957;50.848;20.656;2022-07-19T02:35:16;22;92
66156;DHT22;52957;50.848;20.656;2022-07-19T02:42:06;22;92
66156;DHT22;52957;50.848;20.656;2022-07-19T02:49:23;22;92
66156;DHT22;52957;50.848;20.656;2022-07-19T02:56:17;22;92
66156;DHT22;52957;50.848;20.656;2022-07-19T03:00:19;22;92
66156;DHT22;52957;50.848;20.656;2022-07-19T03:07:16;22;93
66156;DHT22;52957;50.848;20.656;2022-07-19T03:14:18;22;93
66156;DHT22;52957;50.848;20.656;2022-07-19T03:21:05;22;93
66156;DHT22;52957;50.848;20.656;2022-07-19T03:28:18;22;93
66156;DHT22;52957;50.848;20.656;2022-07-19T03:35:10;22;94
66156;DHT22;52957;50.848;20.656;2022-07-19T03:42:05;22;94
66156;DHT22;52957;50.848;20.656;2022-07-19T03:49:02;22;94
66156;DHT22;52957;50.848;20.656;2022-07-19T03:56:22;22;94
66156;DHT22;52957;50.848;20.656;2022-07-19T04:00:11;22;94
66156;DHT22;52957;50.848;20.656;2022-07-19T04:07:03;22;94
66156;DHT22;52957;50.848;20.656;2022-07-19T04:14:03;22;94
66156;DHT22;52957;50.848;20.656;2022-07-19T04:21:05;22;94
66156;DHT22;52957;50.848;20.656;2022-07-19T04:28:21;22;94
66156;DHT22;52957;50.848;20.656;2022-07-19T04:35:18;22;95
66156;DHT22;52957;50.848;20.656;2022-07-19T04:42:04;22;95
66156;DHT22;52957;50.848;20.656;2022-07-19T04:49:05;22;95
66156;DHT22;52957;50.848;20.656;2022-07-19T04:56:17;22;95
66156;DHT22;52957;50.848;20.656;2022-07-19T05:00:22;22;95
66156;DHT22;52957;50.848;20.656;2022-07-19T05:07:04;22;95
66156;DHT22;52957;50.848;20.656;2022-07-19T05:14:20;22;95
66156;DHT22;52957;50.848;20.656;2022-07-19T05:21:16;22;95
66156;DHT22;52957;50.848;20.656;2022-07-19T05:28:04;22;95
66156;DHT22;52957;50.848;20.656;2022-07-19T05:35:04;22;95
66156;DHT22;52957;50.848;20.656;2022-07-19T05:42:01;22;95
66156;DHT22;52957;50.848;20.656;2022-07-19T05:49:19;22;95
66156;DHT22;52957;50.848;20.656;2022-07-19T05:56:11;22;95
66156;DHT22;52957;50.848;20.656;2022-07-19T06:00:19;22;95
66156;DHT22;52957;50.848;20.656;2022-07-19T06:07:15;22;95
66156;DHT22;52957;50.848;20.656;2022-07-19T06:14:18;22;95
66156;DHT22;52957;50.848;20.656;2022-07-19T06:21:26;22;95
66156;DHT22;52957;50.848;20.656;2022-07-19T06:28:03;22;95
66156;DHT22;52957;50.848;20.656;2022-07-19T06:35:04;21;96
66156;DHT22;52957;50.848;20.656;2022-07-19T06:42:04;21;96
66156;DHT22;52957;50.848;20.656;2022-07-19T06:49:20;21;96
66156;DHT22;52957;50.848;20.656;2022-07-19T06:56:08;21;96
66156;DHT22;52957;50.848;20.656;2022-07-19T07:00:12;21;96
66156;DHT22;52957;50.848;20.656;2022-07-19T07:07:05;21;96
66156;DHT22;52957;50.848;20.656;2022-07-19T07:14:02;21;96
66156;DHT22;52957;50.848;20.656;2022-07-19T07:21:04;21;96
66156;DHT22;52957;50.848;20.656;2022-07-19T07:28:15;21;96
66156;DHT22;52957;50.848;20.656;2022-07-19T07:35:03;21;96
66156;DHT22;52957;50.848;20.656;2022-07-19T07:42:17;21;96
66156;DHT22;52957;50.848;20.656;2022-07-19T07:49:22;21;96
66156;DHT22;52957;50.848;20.656;2022-07-19T07:56:07;21;96
66156;DHT22;52957;50.848;20.656;2022-07-19T08:00:25;21;96
66156;DHT22;52957;50.848;20.656;2022-07-19T08:14:03;22;96
66156;DHT22;52957;50.848;20.656;2022-07-19T08:21:07;22;96
66156;DHT22;52957;50.848;20.656;2022-07-19T08:28:16;22;96
66156;DHT22;52957;50.848;20.656;2022-07-19T08:42:26;21;96
66156;DHT22;52957;50.848;20.656;2022-07-19T08:49:18;21;96
66156;DHT22;52957;50.848;20.656;2022-07-19T09:00:18;21;96
66156;DHT22;52957;50.848;20.656;2022-07-19T09:14:27;21;97
66156;DHT22;52957;50.848;20.656;2022-07-19T09:21:09;21;97
66156;DHT22;52957;50.848;20.656;2022-07-19T09:28:05;21;97
66156;DHT22;52957;50.848;20.656;2022-07-19T09:35:19;21;97
66156;DHT22;52957;50.848;20.656;2022-07-19T09:42:03;20;96
66156;DHT22;52957;50.848;20.656;2022-07-19T09:49:19;20;96
66156;DHT22;52957;50.848;20.656;2022-07-19T09:56:20;20;96
66156;DHT22;52957;50.848;20.656;2022-07-19T10:00:27;20;96
66156;DHT22;52957;50.848;20.656;2022-07-19T10:14:17;20;98
66156;DHT22;52957;50.848;20.656;2022-07-19T10:21:08;20;98
66156;DHT22;52957;50.848;20.656;2022-07-19T10:28:32;20;98
66156;DHT22;52957;50.848;20.656;2022-07-19T10:35:28;20;98
66156;DHT22;52957;50.848;20.656;2022-07-19T10:42:12;21;98
66156;DHT22;52957;50.848;20.656;2022-07-19T10:49:47;21;98
66156;DHT22;52957;50.848;20.656;2022-07-19T10:56:20;21;98
66156;DHT22;52957;50.848;20.656;2022-07-19T11:00:28;21;98
66156;DHT22;52957;50.848;20.656;2022-07-19T11:14:14;21;98
66156;DHT22;52957;50.848;20.656;2022-07-19T11:21:21;21;98
66156;DHT22;52957;50.848;20.656;2022-07-19T11:28:03;21;98
66156;DHT22;52957;50.848;20.656;2022-07-19T11:35:21;21;98
66156;DHT22;52957;50.848;20.656;2022-07-19T11:42:36;21;98
66156;DHT22;52957;50.848;20.656;2022-07-19T11:49:07;21;98
66156;DHT22;52957;50.848;20.656;2022-07-19T11:56:18;21;98
66156;DHT22;52957;50.848;20.656;2022-07-19T12:00:25;21;98
66156;DHT22;52957;50.848;20.656;2022-07-19T12:14:45;21;98
66156;DHT22;52957;50.848;20.656;2022-07-19T12:21:27;21;98
66156;DHT22;52957;50.848;20.656;2022-07-19T12:28:27;21;98
66156;DHT22;52957;50.848;20.656;2022-07-19T12:35:16;21;98
66156;DHT22;52957;50.848;20.656;2022-07-19T12:42:04;21;97
66156;DHT22;52957;50.848;20.656;2022-07-19T12:49:23;21;97
66156;DHT22;52957;50.848;20.656;2022-07-19T12:56:15;21;97
66156;DHT22;52957;50.848;20.656;2022-07-19T13:00:09;21;97
66156;DHT22;52957;50.848;20.656;2022-07-19T13:07:17;21;97
66156;DHT22;52957;50.848;20.656;2022-07-19T13:14:07;22;97
66156;DHT22;52957;50.848;20.656;2022-07-19T13:21:07;22;97
66156;DHT22;52957;50.848;20.656;2022-07-19T13:28:19;22;97
66156;DHT22;52957;50.848;20.656;2022-07-19T13:35:05;22;97
66156;DHT22;52957;50.848;20.656;2022-07-19T13:42:03;23;95
66156;DHT22;52957;50.848;20.656;2022-07-19T13:49:30;23;95
66156;DHT22;52957;50.848;20.656;2022-07-19T13:56:16;23;95
66156;DHT22;52957;50.848;20.656;2022-07-19T14:00:17;23;95
66156;DHT22;52957;50.848;20.656;2022-07-19T14:07:14;23;95
66156;DHT22;52957;50.848;20.656;2022-07-19T14:14:04;23;95
66156;DHT22;52957;50.848;20.656;2022-07-19T14:21:18;23;95
66156;DHT22;52957;50.848;20.656;2022-07-19T14:28:09;23;95
66156;DHT22;52957;50.848;20.656;2022-07-19T14:35:09;23;95
66156;DHT22;52957;50.848;20.656;2022-07-19T14:42:06;21;98
66156;DHT22;52957;50.848;20.656;2022-07-19T14:49:07;21;98
66156;DHT22;52957;50.848;20.656;2022-07-19T14:56:05;21;98
66156;DHT22;52957;50.848;20.656;2022-07-19T15:00:02;21;98
66156;DHT22;52957;50.848;20.656;2022-07-19T15:07:05;21;98
66156;DHT22;52957;50.848;20.656;2022-07-19T15:14:19;21;97
66156;DHT22;52957;50.848;20.656;2022-07-19T15:21:20;21;97
66156;DHT22;52957;50.848;20.656;2022-07-19T15:28:03;21;97
66156;DHT22;52957;50.848;20.656;2022-07-19T15:35:15;21;97
66156;DHT22;52957;50.848;20.656;2022-07-19T15:42:14;22;97
66156;DHT22;52957;50.848;20.656;2022-07-19T15:49:14;22;97
66156;DHT22;52957;50.848;20.656;2022-07-19T15:56:21;22;97
66156;DHT22;52957;50.848;20.656;2022-07-19T16:00:20;22;97
66156;DHT22;52957;50.848;20.656;2022-07-19T16:07:03;22;97
66156;DHT22;52957;50.848;20.656;2022-07-19T16:14:18;21;98
66156;DHT22;52957;50.848;20.656;2022-07-19T16:21:21;21;98
66156;DHT22;52957;50.848;20.656;2022-07-19T16:28:05;21;98
66156;DHT22;52957;50.848;20.656;2022-07-19T16:50:08;21;99
66156;DHT22;52957;50.848;20.656;2022-07-19T16:56:20;21;99
66156;DHT22;52957;50.848;20.656;2022-07-19T17:00:04;21;99
66156;DHT22;52957;50.848;20.656;2022-07-19T17:07:03;21;99
66156;DHT22;52957;50.848;20.656;2022-07-19T17:21:15;21;97
66156;DHT22;52957;50.848;20.656;2022-07-19T17:28:07;21;97
66156;DHT22;52957;50.848;20.656;2022-07-19T17:35:06;21;97
66156;DHT22;52957;50.848;20.656;2022-07-19T17:49:05;21;96
66156;DHT22;52957;50.848;20.656;2022-07-19T17:56:04;21;96
66156;DHT22;52957;50.848;20.656;2022-07-19T18:00:01;21;96
66156;DHT22;52957;50.848;20.656;2022-07-19T18:07:04;21;96
66156;DHT22;52957;50.848;20.656;2022-07-19T18:21:18;23;93
66156;DHT22;52957;50.848;20.656;2022-07-19T18:28:19;23;93
66156;DHT22;52957;50.848;20.656;2022-07-19T18:35:06;23;93
66156;DHT22;52957;50.848;20.656;2022-07-19T18:49:12;25;84
66156;DHT22;52957;50.848;20.656;2022-07-19T18:56:06;25;84
66156;DHT22;52957;50.848;20.656;2022-07-19T19:00:22;25;84
66156;DHT22;52957;50.848;20.656;2022-07-19T19:07:05;25;84
66156;DHT22;52957;50.848;20.656;2022-07-19T19:21:03;23;69
66156;DHT22;52957;50.848;20.656;2022-07-19T19:28:04;23;69
66156;DHT22;52957;50.848;20.656;2022-07-19T19:35:19;23;69
66156;DHT22;52957;50.848;20.656;2022-07-19T19:49:16;23;69
66156;DHT22;52957;50.848;20.656;2022-07-19T19:56:03;23;69
66156;DHT22;52957;50.848;20.656;2022-07-19T20:00:21;23;69
66156;DHT22;52957;50.848;20.656;2022-07-19T20:07:03;23;69
66156;DHT22;52957;50.848;20.656;2022-07-19T20:21:18;22;70
66156;DHT22;52957;50.848;20.656;2022-07-19T20:28:14;22;70
66156;DHT22;52957;50.848;20.656;2022-07-19T20:35:21;22;70
66156;DHT22;52957;50.848;20.656;2022-07-19T20:49:04;22;70
66156;DHT22;52957;50.848;20.656;2022-07-19T20:56:03;22;70
66156;DHT22;52957;50.848;20.656;2022-07-19T21:00:12;22;70
66156;DHT22;52957;50.848;20.656;2022-07-19T21:07:06;22;70
66156;DHT22;52957;50.848;20.656;2022-07-19T21:21:14;22;71
66156;DHT22;52957;50.848;20.656;2022-07-19T21:28:04;22;71
66156;DHT22;52957;50.848;20.656;2022-07-19T21:35:21;22;71
66156;DHT22;52957;50.848;20.656;2022-07-19T21:49:22;22;71
66156;DHT22;52957;50.848;20.656;2022-07-19T21:56:03;22;71
66156;DHT22;52957;50.848;20.656;2022-07-19T22:00:21;22;71
66156;DHT22;52957;50.848;20.656;2022-07-19T22:07:02;22;71
66156;DHT22;52957;50.848;20.656;2022-07-19T22:14:03;22;71
66156;DHT22;52957;50.848;20.656;2022-07-19T22:21:20;22;71
66156;DHT22;52957;50.848;20.656;2022-07-19T22:28:02;22;71
66156;DHT22;52957;50.848;20.656;2022-07-19T22:35:02;22;71
66156;DHT22;52957;50.848;20.656;2022-07-19T22:42:17;22;71
66156;DHT22;52957;50.848;20.656;2022-07-19T22:49:21;22;71
66156;DHT22;52957;50.848;20.656;2022-07-19T22:56:03;22;71
66156;DHT22;52957;50.848;20.656;2022-07-19T23:07:03;22;70
66156;DHT22;52957;50.848;20.656;2022-07-19T23:14:14;22;70
66156;DHT22;52957;50.848;20.656;2022-07-19T23:21:04;22;70
66156;DHT22;52957;50.848;20.656;2022-07-19T23:28:06;22;70
66156;DHT22;52957;50.848;20.656;2022-07-19T23:35:12;25;79
66156;DHT22;52957;50.848;20.656;2022-07-19T23:42:18;25;79
66156;DHT22;52957;50.848;20.656;2022-07-19T23:49:03;25;79
66156;DHT22;52957;50.848;20.656;2022-07-19T23:56:08;25;79
